Terminal Aerodrome Forecast
Issued by NWS Cleveland, OH

Home | Current Version | Previous Version | Graphics & Text | Print | Product List | Glossary On
Versions: 1 2 3 4 5 6 7 8 9 10 11 12 13 14 15 16 17 18 19 20 21 22
567
FTUS41 KCLE 091734
TAFERI
TAF
KERI 091734Z 0918/1018 18010KT P6SM SCT070 OVC100
     FM092200 22008KT P6SM SCT045 OVC070
     FM100300 23010KT P6SM VCSH OVC035
     FM100600 26012G20KT 4SM -SHSN BR OVC015
      TEMPO 1006/1010 2SM -SN BR OVC010
     FM101300 29015G25KT 6SM -SHSN OVC030=

USA.gov is the U.S. government's official web portal to all federal, state and local government web resources and services.